Time;durP1;ratioP1;P1;durP2;ratioP2;P2;SDS_P1;SDS_P2;PMS_P1;PMS_P2;Temp;Humidity;BMP_temperature;BMP_pressure;BME280_temperature;BME280_humidity;BME280_pressure;Samples;Min_cycle;Max_cycle;Signal;HPM_P1;HPM_P2
2021/07/17 00:02:29;;;;;;;27.52;8.02;;;;;;;;;;4343183;33;20167;-81
2021/07/17 00:05:05;;;;;;;26.17;8.02;;;;;;;;;;4331800;32;20225;-80
2021/07/17 00:10:53;;;;;;;23.02;7.97;;;;;;;;;;4311551;32;20148;-81
2021/07/17 00:13:49;;;;;;;18.60;7.62;;;;;;;;;;4299556;33;20183;-81
2021/07/17 00:16:18;;;;;;;24.70;8.05;;;;;;;;;;4342684;33;20869;-81
2021/07/17 00:18:49;;;;;;;27.02;8.65;;;;;;;;;;4344157;32;20474;-82
2021/07/17 00:21:18;;;;;;;23.73;7.93;;;;;;;;;;4346840;32;20217;-83
2021/07/17 00:23:48;;;;;;;25.90;8.35;;;;;;;;;;4338741;32;20160;-82
2021/07/17 00:26:13;;;;;;;27.00;8.80;;;;;;;;;;4357129;32;20167;-82
2021/07/17 00:29:07;;;;;;;24.85;7.72;;;;;;;;;;4331353;33;20581;-81
2021/07/17 00:31:33;;;;;;;20.65;8.38;;;;;;;;;;4337968;32;20208;-80
2021/07/17 00:33:58;;;;;;;20.90;8.02;;;;;;;;;;4395862;32;20163;-81
2021/07/17 00:36:24;;;;;;;28.83;8.68;;;;;;;;;;4401936;32;20191;-81
2021/07/17 00:38:52;;;;;;;22.80;8.00;;;;;;;;;;4408372;32;20248;-81
2021/07/17 00:41:18;;;;;;;19.95;8.18;;;;;;;;;;4408481;32;20150;-81
2021/07/17 00:44:06;;;;;;;24.67;8.00;;;;;;;;;;4408063;32;20169;-81
2021/07/17 00:46:32;;;;;;;20.50;8.02;;;;;;;;;;4408423;32;20226;-80
2021/07/17 00:49:00;;;;;;;21.77;8.32;;;;;;;;;;4408363;32;20153;-81
2021/07/17 00:51:26;;;;;;;21.17;8.13;;;;;;;;;;4394973;32;20195;-81
2021/07/17 00:53:51;;;;;;;24.33;8.23;;;;;;;;;;4407253;32;20583;-79
2021/07/17 00:56:31;;;;;;;21.12;8.23;;;;;;;;;;4415139;32;20196;-80
2021/07/17 00:59:08;;;;;;;25.20;8.18;;;;;;;;;;4410205;32;20203;-81
2021/07/17 01:01:37;;;;;;;23.60;8.45;;;;;;;;;;4360243;33;20119;-80
2021/07/17 01:04:05;;;;;;;26.83;8.48;;;;;;;;;;4398201;32;20226;-80
2021/07/17 01:06:54;;;;;;;21.15;8.43;;;;;;;;;;4405806;32;20151;-80
2021/07/17 01:09:20;;;;;;;22.17;8.52;;;;;;;;;;4408529;32;20486;-81
2021/07/17 01:11:45;;;;;;;23.12;8.75;;;;;;;;;;4407818;32;20154;-80
2021/07/17 01:14:14;;;;;;;23.50;9.23;;;;;;;;;;4408192;32;20153;-80
2021/07/17 01:16:40;;;;;;;24.00;8.27;;;;;;;;;;4422469;32;20130;-80
2021/07/17 01:19:30;;;;;;;25.02;8.57;;;;;;;;;;4407981;32;20219;-80
2021/07/17 01:21:56;;;;;;;19.83;8.45;;;;;;;;;;4421560;32;20266;-80
2021/07/17 01:24:29;;;;;;;22.73;8.85;;;;;;;;;;4407791;32;20500;-80
2021/07/17 01:27:06;;;;;;;21.15;8.10;;;;;;;;;;4407892;32;20496;-80
2021/07/17 01:29:33;;;;;;;25.37;8.23;;;;;;;;;;4407696;32;20158;-80
2021/07/17 01:35:05;;;;;;;28.80;9.32;;;;;;;;;;4359051;32;20166;-81
2021/07/17 01:37:30;;;;;;;20.35;8.73;;;;;;;;;;4358307;32;20156;-81
2021/07/17 01:39:55;;;;;;;23.00;9.05;;;;;;;;;;4358327;32;20177;-80
2021/07/17 01:42:21;;;;;;;22.60;8.63;;;;;;;;;;4352797;32;20224;-80
2021/07/17 01:44:49;;;;;;;26.75;8.55;;;;;;;;;;4343226;32;20491;-81
2021/07/17 01:47:18;;;;;;;30.30;9.48;;;;;;;;;;4343056;33;20639;-81
2021/07/17 01:49:46;;;;;;;20.37;8.55;;;;;;;;;;4394892;32;20584;-80
2021/07/17 01:52:19;;;;;;;23.55;8.77;;;;;;;;;;4342544;33;20205;-80
2021/07/17 01:54:44;;;;;;;21.27;8.25;;;;;;;;;;4344072;32;20646;-80
2021/07/17 01:57:09;;;;;;;24.35;8.75;;;;;;;;;;4342947;33;20152;-80
2021/07/17 01:59:46;;;;;;;28.55;9.27;;;;;;;;;;4341756;33;20178;-80
2021/07/17 02:02:41;;;;;;;25.05;9.10;;;;;;;;;;4347479;33;20143;-80
2021/07/17 02:05:06;;;;;;;24.58;9.05;;;;;;;;;;4343591;33;20442;-80
2021/07/17 02:07:47;;;;;;;30.42;9.38;;;;;;;;;;4342630;33;20221;-81
2021/07/17 02:10:16;;;;;;;25.12;10.15;;;;;;;;;;4342308;33;20163;-80
2021/07/17 02:13:00;;;;;;;23.17;8.75;;;;;;;;;;4342403;32;20182;-80
2021/07/17 02:15:35;;;;;;;26.67;8.75;;;;;;;;;;4342437;32;20266;-80
2021/07/17 02:18:05;;;;;;;26.45;9.05;;;;;;;;;;4352284;33;20138;-80
2021/07/17 02:20:30;;;;;;;21.98;8.95;;;;;;;;;;4356609;32;20488;-81
2021/07/17 02:22:59;;;;;;;24.05;9.07;;;;;;;;;;4357114;32;20163;-80
2021/07/17 02:28:15;;;;;;;25.37;9.98;;;;;;;;;;4320527;33;20484;-80
2021/07/17 02:30:40;;;;;;;27.10;9.02;;;;;;;;;;4330150;33;20175;-80
2021/07/17 02:33:05;;;;;;;24.30;8.82;;;;;;;;;;4345227;32;20579;-80
2021/07/17 02:35:46;;;;;;;25.25;9.05;;;;;;;;;;4345049;32;20210;-80
2021/07/17 02:38:12;;;;;;;24.27;8.30;;;;;;;;;;4348564;32;20619;-80
2021/07/17 02:40:37;;;;;;;25.35;9.07;;;;;;;;;;4338701;32;20584;-80
2021/07/17 02:43:06;;;;;;;24.73;9.05;;;;;;;;;;4344514;32;20190;-80
2021/07/17 02:45:40;;;;;;;29.25;9.65;;;;;;;;;;4344687;32;20167;-80
2021/07/17 02:48:14;;;;;;;31.50;9.73;;;;;;;;;;4345181;32;20472;-80
2021/07/17 02:51:08;;;;;;;25.48;9.80;;;;;;;;;;4345409;33;20226;-80
2021/07/17 02:53:34;;;;;;;28.23;9.95;;;;;;;;;;4349966;32;20170;-80
2021/07/17 02:56:02;;;;;;;27.77;10.32;;;;;;;;;;4339600;32;20266;-79
2021/07/17 02:58:32;;;;;;;32.33;10.38;;;;;;;;;;4337582;32;20158;-80
2021/07/17 03:01:09;;;;;;;28.17;9.95;;;;;;;;;;4345036;32;20185;-80
2021/07/17 03:03:44;;;;;;;44.85;11.35;;;;;;;;;;4358963;32;20216;-80
2021/07/17 03:06:15;;;;;;;26.75;9.70;;;;;;;;;;4394890;32;20155;-80
2021/07/17 03:08:40;;;;;;;32.05;10.65;;;;;;;;;;4344969;33;20573;-81
2021/07/17 03:11:11;;;;;;;28.48;10.25;;;;;;;;;;4344312;33;20182;-80
2021/07/17 03:13:36;;;;;;;29.10;9.95;;;;;;;;;;4344572;33;20568;-80
2021/07/17 03:16:05;;;;;;;26.40;9.70;;;;;;;;;;4344107;33;20284;-80
2021/07/17 03:18:35;;;;;;;25.73;9.85;;;;;;;;;;4344087;33;20155;-81
2021/07/17 03:21:03;;;;;;;28.15;10.18;;;;;;;;;;4344975;33;20201;-80
2021/07/17 03:23:34;;;;;;;24.65;10.00;;;;;;;;;;4345383;32;20667;-80
2021/07/17 03:26:03;;;;;;;31.05;10.57;;;;;;;;;;4358912;32;20230;-80
2021/07/17 03:28:28;;;;;;;26.98;10.30;;;;;;;;;;4361953;32;20212;-80
2021/07/17 03:31:16;;;;;;;32.97;9.85;;;;;;;;;;4344221;33;20576;-80
2021/07/17 03:33:50;;;;;;;31.67;11.27;;;;;;;;;;4350643;33;20586;-80
2021/07/17 03:36:19;;;;;;;26.30;9.63;;;;;;;;;;4356908;33;20154;-80
2021/07/17 03:38:50;;;;;;;28.73;10.35;;;;;;;;;;4356546;33;20200;-80
2021/07/17 03:41:16;;;;;;;32.78;10.15;;;;;;;;;;4356864;33;20572;-80
2021/07/17 03:43:41;;;;;;;30.15;11.07;;;;;;;;;;4356387;33;20173;-80
2021/07/17 03:46:09;;;;;;;28.12;10.63;;;;;;;;;;4356039;33;20219;-79
2021/07/17 03:48:35;;;;;;;26.15;10.23;;;;;;;;;;4356610;32;20191;-80
2021/07/17 03:51:00;;;;;;;28.42;11.15;;;;;;;;;;4356478;33;20592;-80
2021/07/17 03:53:28;;;;;;;32.75;10.40;;;;;;;;;;4357259;32;20159;-80
2021/07/17 03:56:13;;;;;;;23.17;9.95;;;;;;;;;;4372308;32;20171;-81
2021/07/17 03:58:39;;;;;;;31.23;10.60;;;;;;;;;;4356477;33;20155;-81
2021/07/17 04:01:12;;;;;;;27.52;9.63;;;;;;;;;;4346491;33;20295;-81
2021/07/17 04:03:37;;;;;;;29.48;10.88;;;;;;;;;;4346949;32;20163;-81
2021/07/17 04:06:03;;;;;;;33.40;10.85;;;;;;;;;;4346209;32;20215;-81
2021/07/17 04:08:28;;;;;;;25.55;10.32;;;;;;;;;;4346630;33;20147;-80
2021/07/17 04:10:54;;;;;;;41.60;12.57;;;;;;;;;;4346775;32;20155;-80
2021/07/17 04:13:19;;;;;;;39.25;12.05;;;;;;;;;;4346128;33;20519;-80
2021/07/17 04:15:44;;;;;;;22.87;9.65;;;;;;;;;;4346380;33;20240;-80
2021/07/17 04:18:10;;;;;;;29.20;10.88;;;;;;;;;;4346604;33;20155;-81
2021/07/17 04:20:38;;;;;;;34.05;11.57;;;;;;;;;;4346630;33;20247;-81
2021/07/17 04:23:04;;;;;;;33.35;10.63;;;;;;;;;;4352923;32;20194;-80
2021/07/17 04:25:30;;;;;;;28.48;9.77;;;;;;;;;;4358087;33;20163;-80
2021/07/17 04:27:56;;;;;;;32.13;11.00;;;;;;;;;;4359843;33;20163;-81
2021/07/17 04:30:21;;;;;;;27.67;10.50;;;;;;;;;;4358974;33;20156;-80
2021/07/17 04:32:47;;;;;;;30.55;9.73;;;;;;;;;;4358400;33;20182;-80
2021/07/17 04:35:13;;;;;;;35.25;11.27;;;;;;;;;;4358629;33;20198;-81
2021/07/17 04:37:38;;;;;;;29.83;11.98;;;;;;;;;;4358896;33;20208;-80
2021/07/17 04:40:04;;;;;;;32.35;10.65;;;;;;;;;;4360039;32;20198;-79
2021/07/17 04:42:29;;;;;;;28.40;10.45;;;;;;;;;;4358902;33;20174;-80
2021/07/17 04:44:55;;;;;;;34.30;10.63;;;;;;;;;;4358538;33;20214;-80
2021/07/17 04:47:20;;;;;;;27.20;9.88;;;;;;;;;;4358540;32;20155;-80
2021/07/17 04:49:45;;;;;;;33.40;10.48;;;;;;;;;;4358936;32;20156;-80
2021/07/17 04:52:10;;;;;;;27.92;11.27;;;;;;;;;;4358599;32;20174;-80
2021/07/17 04:54:52;;;;;;;;;;;;;;;;;;;;;
2021/07/17 04:57:44;;;;;;;;;;;;;;;;;;;;;
2021/07/17 05:00:41;;;;;;;28.85;10.05;;;;;;;;;;4360227;32;20135;-80
2021/07/17 05:03:20;;;;;;;30.88;10.13;;;;;;;;;;4328258;32;20242;-80
2021/07/17 05:06:14;;;;;;;32.25;10.50;;;;;;;;;;4327281;33;20214;-80
2021/07/17 05:08:39;;;;;;;30.02;9.90;;;;;;;;;;4315153;32;20164;-80
2021/07/17 05:11:05;;;;;;;32.85;10.50;;;;;;;;;;4336106;32;20198;-80
2021/07/17 05:13:40;;;;;;;;;;;;;;;;;;;;;
2021/07/17 05:16:06;;;;;;;28.15;10.07;;;;;;;;;;4334801;32;20175;-79
2021/07/17 05:18:37;;;;;;;34.22;10.70;;;;;;;;;;4314685;32;20269;-79
2021/07/17 05:21:05;;;;;;;26.83;10.18;;;;;;;;;;4330095;33;20163;-80
2021/07/17 05:23:30;;;;;;;27.83;9.95;;;;;;;;;;4360291;32;20177;-80
2021/07/17 05:26:06;;;;;;;29.08;9.32;;;;;;;;;;4376627;32;20178;-80
2021/07/17 05:28:34;;;;;;;31.50;10.23;;;;;;;;;;4377218;32;20465;-80
2021/07/17 05:30:59;;;;;;;33.85;10.05;;;;;;;;;;4376844;32;20235;-80
2021/07/17 05:33:25;;;;;;;25.35;10.10;;;;;;;;;;4376206;32;20182;-80
2021/07/17 05:35:50;;;;;;;24.63;9.13;;;;;;;;;;4377094;32;20221;-80
2021/07/17 05:38:15;;;;;;;27.65;8.85;;;;;;;;;;4376633;32;20221;-75
2021/07/17 05:40:40;;;;;;;27.23;8.50;;;;;;;;;;4407342;32;20142;-79
2021/07/17 05:43:26;;;;;;;24.05;8.27;;;;;;;;;;4408434;32;20666;-80
2021/07/17 05:46:03;;;;;;;25.20;8.73;;;;;;;;;;4382811;32;20182;-80
2021/07/17 05:48:47;;;;;;;23.65;8.50;;;;;;;;;;4358131;32;20171;-81
2021/07/17 05:51:23;;;;;;;24.55;7.45;;;;;;;;;;4358988;32;20171;-81
2021/07/17 05:54:15;;;;;;;22.40;7.45;;;;;;;;;;4358068;32;20197;-80
2021/07/17 05:59:38;;;;;;;21.73;7.85;;;;;;;;;;4358862;33;20216;-81
2021/07/17 06:02:39;;;;;;;;;;;;;;;;;;;;;
2021/07/17 06:05:07;;;;;;;22.70;7.60;;;;;;;;;;4358535;32;20178;-80
2021/07/17 06:07:43;;;;;;;23.85;7.43;;;;;;;;;;4355981;32;20175;-81
2021/07/17 06:10:09;;;;;;;28.27;7.43;;;;;;;;;;4346595;32;20264;-82
2021/07/17 06:15:41;;;;;;;20.55;7.10;;;;;;;;;;4351024;32;20206;-80
2021/07/17 06:18:06;;;;;;;24.65;7.03;;;;;;;;;;4343961;33;20189;-80
2021/07/17 06:20:34;;;;;;;22.98;7.07;;;;;;;;;;4345188;33;20166;-80
2021/07/17 06:23:11;;;;;;;21.23;7.05;;;;;;;;;;4344426;33;20221;-82
2021/07/17 06:25:36;;;;;;;22.52;7.15;;;;;;;;;;4385624;32;20165;-80
2021/07/17 06:31:16;;;;;;;21.98;7.20;;;;;;;;;;4355062;32;20216;-82
2021/07/17 06:34:15;;;;;;;18.60;6.72;;;;;;;;;;4344386;32;20213;-82
2021/07/17 06:36:45;;;;;;;22.27;6.57;;;;;;;;;;4357791;32;20189;-81
2021/07/17 06:39:13;;;;;;;18.10;6.20;;;;;;;;;;4344947;33;20151;-80
2021/07/17 06:41:56;;;;;;;16.25;5.90;;;;;;;;;;4344619;32;20593;-80
2021/07/17 06:44:25;;;;;;;22.37;6.35;;;;;;;;;;4354865;33;20147;-80
2021/07/17 06:47:25;;;;;;;;;;;;;;;;;;;;;
2021/07/17 06:49:55;;;;;;;20.15;6.32;;;;;;;;;;4326440;33;20274;-80
2021/07/17 06:53:24;;;;;;;;;;;;;;;;;;;;;
2021/07/17 06:55:18;;;;;;;18.95;6.15;;;;;;;;;;4350532;32;20694;-81
2021/07/17 06:58:06;;;;;;;16.02;5.00;;;;;;;;;;4357108;32;20663;-81
2021/07/17 07:00:43;;;;;;;19.33;6.15;;;;;;;;;;4349615;32;20208;-81
2021/07/17 07:03:09;;;;;;;15.00;5.10;;;;;;;;;;4344290;33;20147;-80
2021/07/17 07:05:37;;;;;;;17.90;5.68;;;;;;;;;;4356978;32;20252;-80
2021/07/17 07:08:02;;;;;;;15.40;5.32;;;;;;;;;;4356355;32;20237;-80
2021/07/17 07:10:33;;;;;;;13.27;5.18;;;;;;;;;;4356243;32;20174;-81
2021/07/17 07:12:59;;;;;;;22.80;5.55;;;;;;;;;;4348405;32;20167;-81
2021/07/17 07:16:17;;;;;;;16.62;5.10;;;;;;;;;;4344720;33;20201;-80
2021/07/17 07:18:29;;;;;;;17.55;5.50;;;;;;;;;;4363290;32;20572;-80
2021/07/17 07:21:07;;;;;;;14.87;4.30;;;;;;;;;;4356897;32;20147;-80
2021/07/17 07:23:40;;;;;;;14.30;4.18;;;;;;;;;;4339202;32;20214;-85
2021/07/17 07:26:28;;;;;;;15.18;4.70;;;;;;;;;;4346345;33;20266;-84
2021/07/17 07:29:16;;;;;;;17.45;4.93;;;;;;;;;;4354956;32;20567;-86
2021/07/17 07:32:01;;;;;;;13.82;3.90;;;;;;;;;;4362723;33;20135;-85
2021/07/17 07:34:36;;;;;;;;;;;;;;;;;;;;;
2021/07/17 07:37:24;;;;;;;10.77;3.60;;;;;;;;;;4363307;33;20143;-83
2021/07/17 07:40:42;;;;;;;10.15;3.60;;;;;;;;;;4350242;33;20178;-83
2021/07/17 07:43:00;;;;;;;7.95;2.78;;;;;;;;;;4359623;32;20233;-85
2021/07/17 07:45:25;;;;;;;9.32;3.42;;;;;;;;;;4355199;32;20216;-85
2021/07/17 07:47:58;;;;;;;7.05;3.30;;;;;;;;;;4359864;33;20194;-83
2021/07/17 07:50:50;;;;;;;9.32;3.20;;;;;;;;;;4359853;33;20230;-83
2021/07/17 07:53:49;;;;;;;8.82;2.70;;;;;;;;;;4361090;32;20228;-84
2021/07/17 07:56:19;;;;;;;6.65;3.00;;;;;;;;;;4352063;32;20232;-84
2021/07/17 07:58:45;;;;;;;11.45;3.25;;;;;;;;;;4359578;33;20181;-84
2021/07/17 08:04:09;;;;;;;11.82;2.80;;;;;;;;;;4293541;33;20197;-83
2021/07/17 08:06:37;;;;;;;6.80;2.60;;;;;;;;;;4351976;33;20287;-84
2021/07/17 08:09:10;;;;;;;9.88;2.85;;;;;;;;;;4359214;32;20194;-84
2021/07/17 08:11:38;;;;;;;5.78;2.50;;;;;;;;;;4359692;32;20331;-84
2021/07/17 08:14:13;;;;;;;;;;;;;;;;;;;;;
2021/07/17 08:16:42;;;;;;;7.70;2.55;;;;;;;;;;4360529;33;20165;-83
2021/07/17 08:19:11;;;;;;;6.18;2.60;;;;;;;;;;4360628;32;20179;-83
2021/07/17 08:21:37;;;;;;;8.88;2.25;;;;;;;;;;4331990;33;20159;-84
2021/07/17 08:24:10;;;;;;;7.97;2.55;;;;;;;;;;4340923;33;20174;-84
2021/07/17 08:26:54;;;;;;;8.18;2.50;;;;;;;;;;4347125;33;20220;-85
2021/07/17 08:29:27;;;;;;;7.65;2.22;;;;;;;;;;4346961;33;20576;-84
2021/07/17 08:34:52;;;;;;;6.47;2.25;;;;;;;;;;4331018;32;20244;-83
2021/07/17 08:37:19;;;;;;;5.45;2.15;;;;;;;;;;4378715;32;20139;-85
2021/07/17 08:39:47;;;;;;;10.35;3.40;;;;;;;;;;4365707;32;20166;-84
2021/07/17 08:42:32;;;;;;;;;;;;;;;;;;;;;
2021/07/17 08:45:01;;;;;;;5.82;1.60;;;;;;;;;;4350031;33;20143;-84
2021/07/17 08:47:29;;;;;;;4.93;2.00;;;;;;;;;;4335372;33;20233;-85
2021/07/17 08:50:01;;;;;;;7.93;2.33;;;;;;;;;;4334641;33;20151;-83
2021/07/17 08:52:59;;;;;;;7.15;2.10;;;;;;;;;;4370928;32;20464;-86
2021/07/17 08:55:26;;;;;;;8.27;2.10;;;;;;;;;;4332456;32;20175;-86
2021/07/17 08:57:51;;;;;;;7.25;1.90;;;;;;;;;;4331761;32;20190;-81
2021/07/17 09:00:18;;;;;;;5.35;2.05;;;;;;;;;;4395378;32;20160;-80
2021/07/17 09:02:47;;;;;;;5.10;1.98;;;;;;;;;;4331473;33;20212;-82
2021/07/17 09:05:17;;;;;;;5.15;1.85;;;;;;;;;;4330729;33;20494;-80
2021/07/17 09:07:43;;;;;;;4.45;1.50;;;;;;;;;;4331211;33;20183;-79
2021/07/17 09:10:30;;;;;;;5.05;1.70;;;;;;;;;;4341727;32;20968;-79
2021/07/17 09:14:00;;;;;;;5.90;1.92;;;;;;;;;;4344890;32;20232;-80
2021/07/17 09:16:01;;;;;;;4.80;2.00;;;;;;;;;;4350654;33;20205;-79
2021/07/17 09:18:49;;;;;;;5.80;1.67;;;;;;;;;;4346342;32;20525;-81
2021/07/17 09:24:19;;;;;;;5.37;1.95;;;;;;;;;;4400963;32;20241;-80
2021/07/17 09:26:52;;;;;;;5.18;1.77;;;;;;;;;;4359980;32;20596;-80
2021/07/17 09:29:37;;;;;;;4.75;1.83;;;;;;;;;;4355567;33;20155;-80
2021/07/17 09:32:28;;;;;;;5.93;2.00;;;;;;;;;;4329189;32;20175;-81
2021/07/17 09:35:18;;;;;;;;;;;;;;;;;;;;;
2021/07/17 09:37:55;;;;;;;4.95;1.52;;;;;;;;;;4342818;32;20152;-80
2021/07/17 09:40:42;;;;;;;5.97;1.85;;;;;;;;;;4342338;33;20175;-81
2021/07/17 09:43:28;;;;;;;3.55;1.58;;;;;;;;;;4343090;33;20152;-80
2021/07/17 09:46:27;;;;;;;2.70;1.50;;;;;;;;;;4343741;33;20175;-82
2021/07/17 09:48:59;;;;;;;5.18;1.98;;;;;;;;;;4343168;33;20213;-82
2021/07/17 09:51:27;;;;;;;3.67;1.40;;;;;;;;;;4343701;33;20232;-82
2021/07/17 09:53:56;;;;;;;3.65;1.10;;;;;;;;;;4343111;33;20607;-81
2021/07/17 09:56:23;;;;;;;3.37;1.10;;;;;;;;;;4342577;33;20233;-83
2021/07/17 09:58:57;;;;;;;3.03;1.15;;;;;;;;;;4343157;33;20554;-81
2021/07/17 10:01:25;;;;;;;1.23;0.90;;;;;;;;;;4342777;33;20159;-81
2021/07/17 10:03:52;;;;;;;2.47;0.85;;;;;;;;;;4342961;32;20159;-80
2021/07/17 10:06:28;;;;;;;1.70;0.90;;;;;;;;;;4342661;33;20160;-81
2021/07/17 10:08:53;;;;;;;1.52;0.90;;;;;;;;;;4342939;33;20186;-80
2021/07/17 10:11:26;;;;;;;2.05;1.00;;;;;;;;;;4342630;33;20167;-81
2021/07/17 10:13:52;;;;;;;3.35;1.20;;;;;;;;;;4342825;33;20186;-81
2021/07/17 10:16:25;;;;;;;3.00;1.10;;;;;;;;;;4342467;33;20194;-82
2021/07/17 10:18:51;;;;;;;5.72;1.10;;;;;;;;;;4342355;33;20279;-80
2021/07/17 10:21:19;;;;;;;2.33;1.00;;;;;;;;;;4342444;33;20175;-79
2021/07/17 10:23:44;;;;;;;2.45;0.90;;;;;;;;;;4342358;33;20164;-81
2021/07/17 10:26:11;;;;;;;2.67;0.80;;;;;;;;;;4342505;33;20499;-81
2021/07/17 10:29:05;;;;;;;1.17;0.65;;;;;;;;;;4329998;33;20199;-81
2021/07/17 10:31:31;;;;;;;2.12;0.70;;;;;;;;;;4343321;32;20175;-81
2021/07/17 10:34:12;;;;;;;2.62;1.10;;;;;;;;;;4343405;33;20159;-80
2021/07/17 10:36:47;;;;;;;1.90;0.70;;;;;;;;;;4359533;32;20155;-81
2021/07/17 10:39:20;;;;;;;2.53;0.60;;;;;;;;;;4348724;32;20193;-81
2021/07/17 10:41:55;;;;;;;1.48;0.80;;;;;;;;;;4350644;32;20198;-80
2021/07/17 10:44:39;;;;;;;4.53;1.00;;;;;;;;;;4345042;32;20208;-81
2021/07/17 10:47:07;;;;;;;1.95;0.80;;;;;;;;;;4344473;33;20283;-81
2021/07/17 10:49:59;;;;;;;1.48;0.90;;;;;;;;;;4344087;32;20201;-80
2021/07/17 10:53:13;;;;;;;;;;;;;;;;;;;;;
2021/07/17 10:55:41;;;;;;;2.00;0.88;;;;;;;;;;4350469;33;20517;-81
2021/07/17 10:58:13;;;;;;;2.10;0.80;;;;;;;;;;4341676;33;20159;-80
2021/07/17 11:01:07;;;;;;;4.43;0.90;;;;;;;;;;4342785;33;20204;-79
2021/07/17 11:06:45;;;;;;;3.97;0.90;;;;;;;;;;4358149;33;20583;-80
2021/07/17 11:09:24;;;;;;;2.10;1.10;;;;;;;;;;4358212;33;20456;-80
2021/07/17 11:15:12;;;;;;;1.67;0.90;;;;;;;;;;4358032;33;20490;-81
2021/07/17 11:18:07;;;;;;;2.97;0.90;;;;;;;;;;4337025;32;20167;-81
2021/07/17 11:20:37;;;;;;;3.87;1.05;;;;;;;;;;4341832;32;20170;-79
2021/07/17 11:23:20;;;;;;;2.87;0.90;;;;;;;;;;4349858;33;20484;-79
2021/07/17 11:26:00;;;;;;;2.97;0.90;;;;;;;;;;4341953;32;20581;-81
2021/07/17 11:32:29;;;;;;;2.00;0.88;;;;;;;;;;4297152;33;20156;-82
2021/07/17 11:35:14;;;;;;;2.15;0.60;;;;;;;;;;4332640;32;20202;-81
2021/07/17 11:37:39;;;;;;;3.08;0.77;;;;;;;;;;4393356;32;20192;-82
2021/07/17 11:40:16;;;;;;;3.55;0.70;;;;;;;;;;4405908;32;20212;-81
2021/07/17 11:45:46;;;;;;;1.95;0.80;;;;;;;;;;4416818;32;20633;-79
2021/07/17 11:48:45;;;;;;;1.48;0.68;;;;;;;;;;4406415;32;20177;-81
2021/07/17 11:51:11;;;;;;;2.72;0.80;;;;;;;;;;4372912;32;20169;-82
2021/07/17 11:53:41;;;;;;;1.15;0.68;;;;;;;;;;4405919;32;20161;-80
2021/07/17 11:59:47;;;;;;;2.92;0.73;;;;;;;;;;4416764;32;20564;-81
2021/07/17 12:02:14;;;;;;;1.05;0.52;;;;;;;;;;4419336;32;20296;-81
2021/07/17 12:05:19;;;;;;;;;;;;;;;;;;;;;
2021/07/17 12:10:30;;;;;;;2.55;0.80;;;;;;;;;;4420038;32;20164;-82
2021/07/17 12:12:59;;;;;;;1.50;0.70;;;;;;;;;;4405720;32;20221;-80
2021/07/17 12:15:38;;;;;;;2.95;0.80;;;;;;;;;;4407368;32;20150;-82
2021/07/17 12:18:13;;;;;;;2.55;0.77;;;;;;;;;;4405881;32;20154;-81
2021/07/17 12:20:51;;;;;;;4.78;1.00;;;;;;;;;;4408812;32;20583;-79
2021/07/17 12:23:40;;;;;;;2.10;0.93;;;;;;;;;;4421696;32;20149;-79
2021/07/17 12:26:11;;;;;;;1.95;0.80;;;;;;;;;;4413064;32;20193;-81
2021/07/17 12:28:36;;;;;;;1.50;0.90;;;;;;;;;;4412994;32;20193;-81
2021/07/17 12:31:07;;;;;;;1.37;0.60;;;;;;;;;;4420462;32;20486;-81
2021/07/17 12:33:34;;;;;;;1.75;0.80;;;;;;;;;;4408682;32;20647;-81
2021/07/17 12:36:07;;;;;;;3.20;0.70;;;;;;;;;;4335384;32;20183;-80
2021/07/17 12:38:37;;;;;;;2.28;0.85;;;;;;;;;;4327231;32;20520;-83
2021/07/17 12:41:05;;;;;;;2.40;0.80;;;;;;;;;;4340504;33;20615;-81
2021/07/17 12:43:32;;;;;;;3.53;0.85;;;;;;;;;;4331292;33;20155;-81
2021/07/17 12:46:06;;;;;;;2.33;0.90;;;;;;;;;;4330896;33;20193;-81
2021/07/17 12:48:47;;;;;;;2.60;0.80;;;;;;;;;;4345267;33;20165;-82
2021/07/17 12:51:19;;;;;;;3.15;1.00;;;;;;;;;;4340900;33;20643;-80
2021/07/17 12:53:46;;;;;;;3.12;0.77;;;;;;;;;;4331049;32;20173;-80
2021/07/17 12:56:26;;;;;;;2.03;0.75;;;;;;;;;;4331687;32;20175;-82
2021/07/17 12:59:00;;;;;;;2.92;0.90;;;;;;;;;;4329226;32;20212;-81
2021/07/17 13:01:26;;;;;;;1.75;0.90;;;;;;;;;;4331457;32;20213;-79
2021/07/17 13:03:51;;;;;;;2.62;0.93;;;;;;;;;;4345021;32;20132;-81
2021/07/17 13:06:19;;;;;;;3.70;0.77;;;;;;;;;;4384801;32;20168;-81
2021/07/17 13:08:55;;;;;;;2.90;0.80;;;;;;;;;;4407721;32;20146;-81
2021/07/17 13:11:27;;;;;;;2.10;0.90;;;;;;;;;;4408078;32;20180;-81
2021/07/17 13:13:53;;;;;;;1.90;0.77;;;;;;;;;;4340145;32;20216;-80
2021/07/17 13:16:35;;;;;;;2.42;0.80;;;;;;;;;;4337862;33;20229;-80
2021/07/17 13:19:02;;;;;;;2.78;0.65;;;;;;;;;;4342892;33;20164;-82
2021/07/17 13:21:35;;;;;;;1.90;0.60;;;;;;;;;;4394271;32;20162;-82
2021/07/17 13:24:01;;;;;;;2.60;0.70;;;;;;;;;;4342926;33;20167;-81
2021/07/17 13:26:32;;;;;;;1.10;0.68;;;;;;;;;;4329561;33;20163;-82
2021/07/17 13:29:14;;;;;;;2.83;0.70;;;;;;;;;;4341281;32;20160;-80
2021/07/17 13:31:46;;;;;;;2.08;0.68;;;;;;;;;;4343025;33;20163;-80
2021/07/17 13:34:12;;;;;;;1.55;0.80;;;;;;;;;;4334787;32;20271;-79
2021/07/17 13:36:53;;;;;;;2.58;0.85;;;;;;;;;;4342876;33;20547;-80
2021/07/17 13:39:20;;;;;;;2.95;0.80;;;;;;;;;;4343206;32;20159;-81
2021/07/17 13:42:01;;;;;;;2.15;0.70;;;;;;;;;;4344981;32;20241;-82
2021/07/17 13:45:22;;;;;;;;;;;;;;;;;;;;;
2021/07/17 13:47:19;;;;;;;3.12;0.75;;;;;;;;;;4347955;32;20224;-80
2021/07/17 13:49:45;;;;;;;3.55;1.10;;;;;;;;;;4343083;33;20184;-82
2021/07/17 13:52:30;;;;;;;3.87;0.80;;;;;;;;;;4339508;32;20154;-81
2021/07/17 13:58:02;;;;;;;3.37;1.20;;;;;;;;;;4350919;32;20155;-80
2021/07/17 14:00:37;;;;;;;2.00;0.80;;;;;;;;;;4330610;32;20178;-80
2021/07/17 14:03:06;;;;;;;3.45;0.80;;;;;;;;;;4331137;33;20258;-80
2021/07/17 14:05:31;;;;;;;2.70;0.70;;;;;;;;;;4318252;33;20159;-81
2021/07/17 14:07:57;;;;;;;1.40;1.00;;;;;;;;;;4329434;32;20159;-83
2021/07/17 14:10:23;;;;;;;1.52;0.70;;;;;;;;;;4337653;32;20188;-80
2021/07/17 14:13:13;;;;;;;3.12;1.20;;;;;;;;;;4338242;32;20301;-81
2021/07/17 14:15:55;;;;;;;;;;;;;;;;;;;;;
2021/07/17 14:18:21;;;;;;;2.75;0.82;;;;;;;;;;4356237;33;20580;-80
2021/07/17 14:20:47;;;;;;;2.55;0.70;;;;;;;;;;4342862;32;20232;-80
2021/07/17 14:23:15;;;;;;;2.87;0.77;;;;;;;;;;4345010;32;20155;-81
2021/07/17 14:25:42;;;;;;;3.28;1.08;;;;;;;;;;4344720;33;20182;-81
2021/07/17 14:28:08;;;;;;;1.40;0.70;;;;;;;;;;4344808;33;20193;-80
2021/07/17 14:30:35;;;;;;;4.72;0.82;;;;;;;;;;4334671;32;20644;-79
2021/07/17 14:33:01;;;;;;;2.37;0.90;;;;;;;;;;4333154;32;20190;-80
2021/07/17 14:35:27;;;;;;;1.65;0.80;;;;;;;;;;4348819;32;20668;-80
2021/07/17 14:38:05;;;;;;;3.17;0.90;;;;;;;;;;4344182;32;20166;-79
2021/07/17 14:40:33;;;;;;;3.08;1.17;;;;;;;;;;4344456;32;20162;-80
2021/07/17 14:42:59;;;;;;;2.17;0.90;;;;;;;;;;4345333;32;20171;-80
2021/07/17 14:45:24;;;;;;;1.98;0.90;;;;;;;;;;4344727;32;20655;-80
2021/07/17 14:48:01;;;;;;;1.50;0.80;;;;;;;;;;4344493;32;20163;-81
2021/07/17 14:50:37;;;;;;;;;;;;;;;;;;;;;
2021/07/17 14:53:06;;;;;;;3.05;1.10;;;;;;;;;;4356304;33;20198;-81
2021/07/17 14:55:31;;;;;;;3.50;1.02;;;;;;;;;;4344576;33;20170;-82
2021/07/17 14:57:57;;;;;;;2.22;1.10;;;;;;;;;;4344542;33;20618;-81
2021/07/17 15:00:22;;;;;;;3.20;1.10;;;;;;;;;;4344464;32;20602;-81
2021/07/17 15:02:54;;;;;;;1.48;0.80;;;;;;;;;;4358099;33;20155;-79
2021/07/17 15:05:27;;;;;;;3.70;0.93;;;;;;;;;;4344367;33;20179;-80
2021/07/17 15:07:52;;;;;;;1.98;0.98;;;;;;;;;;4344474;33;20159;-81
2021/07/17 15:10:18;;;;;;;3.33;0.90;;;;;;;;;;4344437;33;20205;-81
2021/07/17 15:12:43;;;;;;;1.77;0.80;;;;;;;;;;4344430;33;20246;-78
2021/07/17 15:15:09;;;;;;;1.77;0.98;;;;;;;;;;4348734;32;20230;-81
2021/07/17 15:18:10;;;;;;;2.65;0.90;;;;;;;;;;4404309;32;20219;-80
2021/07/17 15:20:36;;;;;;;4.30;1.42;;;;;;;;;;4341998;32;20167;-80
2021/07/17 15:23:01;;;;;;;2.53;0.93;;;;;;;;;;4358789;32;20193;-81
2021/07/17 15:25:30;;;;;;;2.45;0.85;;;;;;;;;;4359407;32;20592;-81
2021/07/17 15:27:55;;;;;;;2.10;1.05;;;;;;;;;;4352044;32;20158;-80
2021/07/17 15:30:20;;;;;;;2.22;1.10;;;;;;;;;;4336443;33;20527;-80
2021/07/17 15:32:52;;;;;;;2.45;1.10;;;;;;;;;;4351162;32;20265;-80
2021/07/17 15:35:39;;;;;;;5.18;1.05;;;;;;;;;;4358966;32;20217;-80
2021/07/17 15:38:06;;;;;;;4.25;1.17;;;;;;;;;;4359310;32;20215;-80
2021/07/17 15:40:40;;;;;;;2.83;0.90;;;;;;;;;;4372982;32;20143;-80
2021/07/17 15:45:57;;;;;;;2.70;1.00;;;;;;;;;;4353459;32;20236;-81
2021/07/17 15:48:44;;;;;;;2.20;1.00;;;;;;;;;;4353642;32;20163;-81
2021/07/17 15:51:13;;;;;;;2.20;0.82;;;;;;;;;;4348411;33;20160;-81
2021/07/17 15:53:46;;;;;;;2.58;0.95;;;;;;;;;;4346499;33;20186;-81
2021/07/17 15:56:21;;;;;;;3.05;1.27;;;;;;;;;;4346552;33;20171;-81
2021/07/17 15:58:48;;;;;;;3.17;0.90;;;;;;;;;;4347025;33;20208;-81
2021/07/17 16:01:42;;;;;;;2.25;1.02;;;;;;;;;;4346436;33;20178;-81
2021/07/17 16:04:12;;;;;;;4.82;1.20;;;;;;;;;;4359838;32;20175;-79
2021/07/17 16:06:42;;;;;;;3.25;0.90;;;;;;;;;;4334782;33;20159;-81
2021/07/17 16:09:07;;;;;;;1.65;1.08;;;;;;;;;;4344108;33;20618;-82
2021/07/17 16:12:05;;;;;;;2.10;0.90;;;;;;;;;;4343039;32;20151;-81
2021/07/17 16:14:39;;;;;;;1.98;1.08;;;;;;;;;;4354849;32;20193;-81
2021/07/17 16:17:28;;;;;;;2.78;1.10;;;;;;;;;;4346464;33;20184;-81